createdAt,value
2019-02-09T00:01:51.826Z,98408.84
2019-02-09T00:04:21.779Z,98404.62
2019-02-09T00:06:52.006Z,98404.12
2019-02-09T00:09:22.810Z,98401.06
2019-02-09T00:11:52.854Z,98399.82
2019-02-09T00:14:23.001Z,98396.07
2019-02-09T00:16:52.681Z,98391.91
2019-02-09T00:19:21.922Z,98395.89
2019-02-09T00:21:52.080Z,98397.44
2019-02-09T00:24:22.135Z,98390.64
2019-02-09T00:26:52.053Z,98393.33
2019-02-09T00:29:22.318Z,98398.95
2019-02-09T00:31:52.525Z,98396.20
2019-02-09T00:34:22.518Z,98400.58
2019-02-09T00:36:52.500Z,98389.08
2019-02-09T00:39:22.085Z,98389.08
2019-02-09T00:41:51.722Z,98389.34
2019-02-09T00:44:20.458Z,98400.31
2019-02-09T00:46:50.324Z,98391.39
2019-02-09T00:49:21.400Z,98391.39
2019-02-09T00:51:52.487Z,98387.84
2019-02-09T00:54:22.119Z,98377.66
2019-02-09T00:56:52.067Z,98379.34
2019-02-09T00:59:22.176Z,98378.36
2019-02-09T01:01:51.942Z,98374.92
2019-02-09T01:04:22.024Z,98376.67
2019-02-09T01:06:52.062Z,98369.17
2019-02-09T01:09:22.036Z,98367.48
2019-02-09T01:11:51.639Z,98370.94
2019-02-09T01:14:21.359Z,98354.92
2019-02-09T01:16:51.840Z,98342.55
2019-02-09T01:19:21.598Z,98342.55
2019-02-09T01:21:50.470Z,98344.45
2019-02-09T01:24:20.443Z,98332.32
2019-02-09T01:26:50.082Z,98332.32
2019-02-09T01:29:19.658Z,98319.23
2019-02-09T01:31:49.050Z,98339.02
2019-02-09T01:34:19.143Z,98339.02
2019-02-09T01:36:48.804Z,98337.97
2019-02-09T01:39:18.308Z,98341.81
2019-02-09T01:41:48.055Z,98325.67
2019-02-09T01:44:18.100Z,98320.08
2019-02-09T01:46:47.800Z,98318.42
2019-02-09T01:49:17.686Z,98301.41
2019-02-09T01:51:46.554Z,98308.36
2019-02-09T01:54:16.313Z,98283.58
2019-02-09T01:56:46.000Z,98283.58
2019-02-09T01:59:15.619Z,98289.53
2019-02-09T02:01:45.632Z,98271.09
2019-02-09T02:04:14.529Z,98271.09
2019-02-09T02:06:44.315Z,98267.06
2019-02-09T02:09:14.122Z,98267.06
2019-02-09T02:11:43.792Z,98277.69
2019-02-09T02:14:13.635Z,98261.67
2019-02-09T02:16:43.316Z,98252.47
2019-02-09T02:19:12.820Z,98252.47
2019-02-09T02:21:42.517Z,98250.31
2019-02-09T02:24:11.796Z,98252.73
2019-02-09T02:26:41.324Z,98238.47
2019-02-09T02:29:11.580Z,98242.89
2019-02-09T02:31:40.604Z,98247.76
2019-02-09T02:34:10.526Z,98235.41
2019-02-09T02:36:39.984Z,98235.41
2019-02-09T02:39:11.035Z,98227.02
2019-02-09T02:41:40.968Z,98223.25
2019-02-09T02:44:10.808Z,98221.88
2019-02-09T02:46:41.516Z,98218.66
2019-02-09T02:49:11.022Z,98212.62
2019-02-09T02:51:42.098Z,98218.03
2019-02-09T02:54:11.648Z,98211.58
2019-02-09T02:56:41.049Z,98214.52
2019-02-09T02:59:10.514Z,98214.52
2019-02-09T03:01:40.082Z,98217.50
2019-02-09T03:04:09.940Z,98225.24
2019-02-09T03:06:39.544Z,98218.96
2019-02-09T03:09:09.631Z,98217.95
2019-02-09T03:11:38.926Z,98225.41
2019-02-09T03:14:08.644Z,98226.53
2019-02-09T03:16:39.139Z,98209.84
2019-02-09T03:19:08.969Z,98209.84
2019-02-09T03:21:38.517Z,98226.16
2019-02-09T03:24:08.131Z,98222.64
2019-02-09T03:26:37.634Z,98232.13
2019-02-09T03:29:08.640Z,98234.65
2019-02-09T03:31:37.934Z,98243.79
2019-02-09T03:34:07.512Z,98246.39
2019-02-09T03:36:37.322Z,98250.45
2019-02-09T03:39:08.504Z,98250.45
2019-02-09T03:41:38.033Z,98263.00
2019-02-09T03:44:08.320Z,98270.19
2019-02-09T03:46:38.317Z,98271.17
2019-02-09T03:49:07.796Z,98253.59
2019-02-09T03:51:37.556Z,98258.55
2019-02-09T03:54:07.150Z,98271.80
2019-02-09T03:56:36.618Z,98275.27
2019-02-09T03:59:05.285Z,98282.05
2019-02-09T04:01:34.812Z,98292.39
2019-02-09T04:04:04.486Z,98280.88
2019-02-09T04:06:34.498Z,98294.30
2019-02-09T04:09:06.267Z,98293.42
2019-02-09T04:11:36.140Z,98293.42
2019-02-09T04:14:05.972Z,98294.58
2019-02-09T04:16:35.599Z,98302.37
2019-02-09T04:19:04.549Z,98295.94
2019-02-09T04:21:34.057Z,98295.94
2019-02-09T04:24:03.967Z,98287.52
2019-02-09T04:26:33.622Z,98298.83
2019-02-09T04:29:02.464Z,98286.42
2019-02-09T04:31:32.105Z,98288.42
2019-02-09T04:34:02.528Z,98288.42
2019-02-09T04:36:32.521Z,98297.84
2019-02-09T04:39:03.327Z,98297.84
2019-02-09T04:41:33.976Z,98311.00
2019-02-09T04:44:04.669Z,98312.59
2019-02-09T04:46:34.417Z,98319.20
2019-02-09T04:49:04.564Z,98297.17
2019-02-09T04:51:34.321Z,98278.84
2019-02-09T04:56:43.159Z,98301.00
2019-02-09T04:59:13.538Z,98306.00
2019-02-09T05:01:42.990Z,98310.05
2019-02-09T05:04:12.963Z,98314.66
2019-02-09T05:06:42.777Z,98317.09
2019-02-09T05:09:13.115Z,98327.17
2019-02-09T05:11:42.993Z,98328.55
2019-02-09T05:14:12.721Z,98326.42
2019-02-09T05:16:43.322Z,98324.06
2019-02-09T05:19:13.512Z,98307.45
2019-02-09T05:21:43.631Z,98307.45
2019-02-09T05:24:13.525Z,98342.05
2019-02-09T05:26:43.316Z,98342.05
2019-02-09T05:29:13.066Z,98357.25
2019-02-09T05:31:42.581Z,98342.98
2019-02-09T05:34:12.523Z,98322.38
2019-02-09T05:36:42.070Z,98322.38
2019-02-09T05:39:12.452Z,98334.03
2019-02-09T05:41:42.544Z,98334.58
2019-02-09T05:44:12.019Z,98337.59
2019-02-09T05:46:41.652Z,98337.47
2019-02-09T05:49:11.100Z,98351.52
2019-02-09T05:51:41.015Z,98351.52
2019-02-09T05:54:11.052Z,98337.93
2019-02-09T05:56:40.879Z,98340.66
2019-02-09T05:59:11.412Z,98336.90
2019-02-09T06:01:40.773Z,98335.72
2019-02-09T06:04:09.815Z,98340.35
2019-02-09T06:06:38.981Z,98340.31
2019-02-09T06:09:08.850Z,98344.44
2019-02-09T06:11:38.504Z,98351.31
2019-02-09T06:14:08.124Z,98353.50
2019-02-09T06:16:37.908Z,98353.50
2019-02-09T06:19:07.658Z,98357.73
2019-02-09T06:21:36.520Z,98354.80
2019-02-09T06:24:06.520Z,98354.80
2019-02-09T06:26:36.556Z,98372.48
2019-02-09T06:29:06.577Z,98372.48
2019-02-09T06:31:40.955Z,98374.05
2019-02-09T06:35:19.686Z,98374.41
2019-02-09T06:39:37.077Z,98378.54
2019-02-09T06:42:13.135Z,98382.95
2019-02-09T06:44:43.034Z,98389.12
2019-02-09T06:47:13.835Z,98383.20
2019-02-09T06:49:43.509Z,98403.52
2019-02-09T06:52:13.412Z,98402.05
2019-02-09T06:54:43.027Z,98402.22
2019-02-09T06:57:13.015Z,98402.08
2019-02-09T06:59:43.033Z,98409.88
2019-02-09T07:02:15.561Z,98410.95
2019-02-09T07:04:45.550Z,98420.56
2019-02-09T07:07:15.325Z,98427.36
2019-02-09T07:09:44.976Z,98427.36
2019-02-09T07:12:14.636Z,98444.58
2019-02-09T07:14:44.328Z,98444.50
2019-02-09T07:17:14.325Z,98444.50
2019-02-09T07:19:44.328Z,98460.70
2019-02-09T07:22:14.070Z,98464.06
2019-02-09T07:24:44.851Z,98473.12
2019-02-09T07:27:14.825Z,98473.98
2019-02-09T07:29:44.770Z,98481.59
2019-02-09T07:32:14.305Z,98496.19
2019-02-09T07:34:44.513Z,98508.05
2019-02-09T07:37:14.712Z,98509.33
2019-02-09T07:39:44.311Z,98510.22
2019-02-09T07:42:13.980Z,98510.52
2019-02-09T07:44:43.998Z,98518.80
2019-02-09T07:47:13.909Z,98526.45
2019-02-09T07:49:43.626Z,98537.28
2019-02-09T07:52:12.472Z,98546.54
2019-02-09T07:54:42.065Z,98555.79
2019-02-09T07:57:11.775Z,98561.41
2019-02-09T07:59:41.137Z,98559.28
2019-02-09T08:02:10.798Z,98573.70
2019-02-09T08:04:40.755Z,98571.35
2019-02-09T08:07:09.490Z,98553.13
2019-02-09T08:09:39.496Z,98573.81
2019-02-09T08:12:09.326Z,98578.27
2019-02-09T08:14:39.005Z,98578.27
2019-02-09T08:17:08.898Z,98591.59
2019-02-09T08:19:38.788Z,98594.28
2019-02-09T08:22:09.316Z,98604.55
2019-02-09T08:24:39.073Z,98607.14
2019-02-09T08:27:08.635Z,98601.92
2019-02-09T08:29:37.798Z,98595.54
2019-02-09T08:32:12.552Z,98581.52
2019-02-09T08:34:38.607Z,98594.25
2019-02-09T08:37:07.539Z,98590.66
2019-02-09T08:39:37.323Z,98592.47
2019-02-09T08:42:07.072Z,98592.47
2019-02-09T08:44:36.981Z,98598.30
2019-02-09T08:47:06.931Z,98608.52
2019-02-09T08:49:37.582Z,98603.00
2019-02-09T08:52:06.837Z,98597.68
2019-02-09T08:54:36.635Z,98603.45
2019-02-09T08:57:06.028Z,98593.80
2019-02-09T08:59:36.113Z,98602.47
2019-02-09T09:02:05.885Z,98592.44
2019-02-09T09:04:35.503Z,98589.56
2019-02-09T09:07:05.360Z,98598.34
2019-02-09T09:09:34.797Z,98609.29
2019-02-09T09:12:04.329Z,98611.98
2019-02-09T09:14:34.044Z,98619.75
2019-02-09T09:17:03.788Z,98612.61
2019-02-09T09:19:33.668Z,98625.31
2019-02-09T09:22:02.489Z,98622.77
2019-02-09T09:24:32.315Z,98621.48
2019-02-09T09:27:02.150Z,98621.48
2019-02-09T09:29:32.321Z,98630.00
2019-02-09T09:32:02.548Z,98631.95
2019-02-09T09:34:32.631Z,98620.10
2019-02-09T09:37:02.654Z,98620.10
2019-02-09T09:39:33.737Z,98621.89
2019-02-09T09:42:03.659Z,98625.75
2019-02-09T09:44:32.727Z,98625.60
2019-02-09T09:47:02.311Z,98611.23
2019-02-09T09:49:32.318Z,98618.06
2019-02-09T09:52:02.029Z,98625.05
2019-02-09T09:54:32.038Z,98630.20
2019-02-09T09:57:02.492Z,98628.71
2019-02-09T09:59:32.037Z,98620.47
2019-02-09T10:02:02.304Z,98621.45
2019-02-09T10:04:32.139Z,98627.23
2019-02-09T10:07:02.024Z,98632.95
2019-02-09T10:09:31.843Z,98634.80
2019-02-09T10:12:01.793Z,98625.31
2019-02-09T10:14:31.543Z,98631.38
2019-02-09T10:17:00.706Z,98652.12
2019-02-09T10:19:29.699Z,98652.12
2019-02-09T10:21:59.696Z,98666.61
2019-02-09T10:24:29.786Z,98673.20
2019-02-09T10:26:59.578Z,98681.92
2019-02-09T10:29:28.474Z,98687.31
2019-02-09T10:31:58.301Z,98687.84
2019-02-09T10:34:28.092Z,98687.84
2019-02-09T10:36:57.802Z,98697.86
2019-02-09T10:39:27.643Z,98702.20
2019-02-09T10:41:57.443Z,98695.03
2019-02-09T10:44:27.801Z,98695.03
2019-02-09T10:46:57.619Z,98684.78
2019-02-09T10:49:26.678Z,98695.23
2019-02-09T10:51:56.439Z,98684.13
2019-02-09T10:54:26.121Z,98701.43
2019-02-09T10:56:56.044Z,98701.43
2019-02-09T10:59:26.432Z,98701.77
2019-02-09T11:01:56.201Z,98694.19
2019-02-09T11:04:26.628Z,98698.77
2019-02-09T11:06:56.583Z,98697.09
2019-02-09T11:09:26.878Z,98706.17
2019-02-09T11:11:56.820Z,98693.65
2019-02-09T11:14:26.992Z,98697.33
2019-02-09T11:16:57.140Z,98691.67
2019-02-09T11:19:26.974Z,98679.47
2019-02-09T11:21:57.641Z,98690.07
2019-02-09T11:24:27.309Z,98662.45
2019-02-09T11:26:57.061Z,98662.45
2019-02-09T11:29:27.866Z,98662.50
2019-02-09T11:31:58.074Z,98660.28
2019-02-09T11:34:29.073Z,98668.22
2019-02-09T11:36:58.640Z,98661.31
2019-02-09T11:39:32.031Z,98661.27
2019-02-09T11:42:02.368Z,98662.53
2019-02-09T11:44:32.513Z,98654.55
2019-02-09T11:47:02.311Z,98665.79
2019-02-09T11:49:32.730Z,98664.27
2019-02-09T11:52:02.208Z,98663.16
2019-02-09T11:54:32.132Z,98660.67
2019-02-09T11:57:02.165Z,98677.77
2019-02-09T11:59:31.984Z,98661.78
2019-02-09T12:02:01.591Z,98673.88
2019-02-09T12:04:30.475Z,98674.57
2019-02-09T12:07:00.310Z,98668.11
2019-02-09T12:09:30.128Z,98668.11
2019-02-09T12:11:59.812Z,98669.84
2019-02-09T12:14:30.063Z,98685.98
2019-02-09T12:17:00.019Z,98700.91
2019-02-09T12:19:29.635Z,98699.44
2019-02-09T12:22:00.556Z,98693.30
2019-02-09T12:24:30.351Z,98674.05
2019-02-09T12:27:00.144Z,98674.05
2019-02-09T12:29:29.621Z,98665.92
2019-02-09T12:31:58.743Z,98657.28
2019-02-09T12:34:28.827Z,98665.13
2019-02-09T12:36:58.827Z,98649.86
2019-02-09T12:39:28.324Z,98654.30
2019-02-09T12:41:58.572Z,98648.73
2019-02-09T12:44:29.527Z,98657.06
2019-02-09T12:46:59.526Z,98649.34
2019-02-09T12:49:29.316Z,98649.34
2019-02-09T12:51:59.133Z,98645.30
2019-02-09T12:54:28.691Z,98644.73
2019-02-09T12:56:59.170Z,98632.80
2019-02-09T12:59:34.024Z,98641.53
2019-02-09T13:04:27.318Z,98635.92
2019-02-09T13:06:57.141Z,98644.37
2019-02-09T13:09:27.058Z,98643.77
2019-02-09T13:11:57.174Z,98644.11
2019-02-09T13:14:27.079Z,98639.58
2019-02-09T13:16:57.011Z,98648.52
2019-02-09T13:19:26.567Z,98642.53
2019-02-09T13:21:56.426Z,98637.63
2019-02-09T13:24:26.520Z,98637.63
2019-02-09T13:26:56.564Z,98651.81
2019-02-09T13:29:26.540Z,98653.17
2019-02-09T13:31:56.319Z,98653.17
2019-02-09T13:34:25.831Z,98659.37
2019-02-09T13:36:55.646Z,98647.88
2019-02-09T13:39:24.512Z,98654.36
2019-02-09T13:41:54.572Z,98665.41
2019-02-09T13:44:23.958Z,98665.41
2019-02-09T13:46:53.914Z,98668.36
2019-02-09T13:49:23.662Z,98673.66
2019-02-09T13:51:52.579Z,98675.05
2019-02-09T13:54:22.266Z,98679.34
2019-02-09T13:56:52.308Z,98676.34
2019-02-09T13:59:22.116Z,98677.83
2019-02-09T14:01:52.165Z,98678.83
2019-02-09T14:04:21.982Z,98678.48
2019-02-09T14:06:52.012Z,98683.66
2019-02-09T14:09:21.964Z,98687.17
2019-02-09T14:11:53.386Z,98679.61
2019-02-09T14:14:23.490Z,98686.46
2019-02-09T14:16:52.948Z,98690.84
2019-02-09T14:19:23.249Z,98686.30
2019-02-09T14:21:53.068Z,98696.32
2019-02-09T14:24:22.644Z,98698.96
2019-02-09T14:26:51.892Z,98700.95
2019-02-09T14:29:22.306Z,98691.66
2019-02-09T14:31:52.142Z,98696.46
2019-02-09T14:34:21.811Z,98692.41
2019-02-09T14:36:52.590Z,98696.38
2019-02-09T14:39:22.633Z,98681.32
2019-02-09T14:41:52.536Z,98684.41
2019-02-09T14:44:22.667Z,98668.69
2019-02-09T14:46:51.638Z,98680.34
2019-02-09T14:49:21.027Z,98680.34
2019-02-09T14:51:50.933Z,98689.84
2019-02-09T14:54:21.032Z,98690.33
2019-02-09T14:56:51.811Z,98695.39
2019-02-09T14:59:21.911Z,98679.42
2019-02-09T15:01:51.810Z,98684.52
2019-02-09T15:04:22.150Z,98685.75
2019-02-09T15:06:53.570Z,98677.42
2019-02-09T15:09:23.622Z,98684.47
2019-02-09T15:11:53.450Z,98667.87
2019-02-09T15:14:23.859Z,98692.14
2019-02-09T15:16:55.966Z,98692.14
2019-02-09T15:19:35.715Z,98692.97
2019-02-09T15:22:05.803Z,98694.91
2019-02-09T15:24:36.016Z,98700.88
2019-02-09T15:27:06.394Z,98697.83
2019-02-09T15:29:36.589Z,98686.31
2019-02-09T15:32:07.698Z,98686.31
2019-02-09T15:34:37.989Z,98699.20
2019-02-09T15:37:07.877Z,98709.97
2019-02-09T15:39:38.171Z,98712.55
2019-02-09T15:42:08.328Z,98712.81
2019-02-09T15:44:38.049Z,98724.27
2019-02-09T15:47:08.046Z,98726.09
2019-02-09T15:49:38.078Z,98720.00
2019-02-09T15:52:08.133Z,98717.59
2019-02-09T15:54:38.175Z,98719.44
2019-02-09T15:57:07.726Z,98713.84
2019-02-09T15:59:37.777Z,98717.59
2019-02-09T16:02:07.594Z,98714.21
2019-02-09T16:04:36.443Z,98713.72
2019-02-09T16:07:06.393Z,98713.34
2019-02-09T16:09:35.779Z,98716.30
2019-02-09T16:12:05.812Z,98719.92
2019-02-09T16:14:35.834Z,98715.89
2019-02-09T16:17:05.582Z,98718.66
2019-02-09T16:19:34.631Z,98715.52
2019-02-09T16:22:04.476Z,98716.53
2019-02-09T16:24:34.330Z,98712.87
2019-02-09T16:27:04.522Z,98720.84
2019-02-09T16:29:35.312Z,98724.88
2019-02-09T16:32:06.084Z,98724.88
2019-02-09T16:34:37.048Z,98729.69
2019-02-09T16:37:07.037Z,98722.11
2019-02-09T16:39:37.094Z,98717.45
2019-02-09T16:42:06.983Z,98714.84
2019-02-09T16:44:36.867Z,98721.92
2019-02-09T16:47:06.633Z,98726.70
2019-02-09T16:49:36.314Z,98715.66
2019-02-09T16:52:06.321Z,98715.66
2019-02-09T16:54:35.881Z,98720.13
2019-02-09T16:57:05.649Z,98716.70
2019-02-09T16:59:35.597Z,98723.55
2019-02-09T17:02:05.325Z,98726.09
2019-02-09T17:04:35.657Z,98726.09
2019-02-09T17:07:05.306Z,98718.88
2019-02-09T17:09:35.495Z,98716.33
2019-02-09T17:12:05.109Z,98721.55
2019-02-09T17:14:34.599Z,98722.78
2019-02-09T17:17:03.480Z,98724.64
2019-02-09T17:19:33.523Z,98726.13
2019-02-09T17:22:03.342Z,98720.97
2019-02-09T17:24:33.323Z,98720.97
2019-02-09T17:27:03.520Z,98725.34
2019-02-09T17:29:33.525Z,98728.31
2019-02-09T17:32:03.229Z,98733.91
2019-02-09T17:34:40.639Z,98733.91
2019-02-09T17:37:05.373Z,98742.22
2019-02-09T17:39:35.465Z,98734.02
2019-02-09T17:42:05.437Z,98740.62
2019-02-09T17:44:35.382Z,98737.10
2019-02-09T17:47:05.295Z,98737.10
2019-02-09T17:49:35.115Z,98744.83
2019-02-09T17:52:05.067Z,98741.32
2019-02-09T17:54:34.994Z,98739.47
2019-02-09T17:57:04.822Z,98742.83
2019-02-09T17:59:34.602Z,98744.77
2019-02-09T18:02:03.924Z,98740.95
2019-02-09T18:04:33.618Z,98749.16
2019-02-09T18:07:03.526Z,98745.88
2019-02-09T18:09:33.480Z,98754.91
2019-02-09T18:12:03.321Z,98748.25
2019-02-09T18:14:33.328Z,98748.25
2019-02-09T18:17:03.160Z,98752.89
2019-02-09T18:19:33.167Z,98750.59
2019-02-09T18:22:03.462Z,98761.25
2019-02-09T18:24:33.642Z,98754.55
2019-02-09T18:27:02.800Z,98754.55
2019-02-09T18:29:33.031Z,98753.66
2019-02-09T18:32:03.162Z,98751.59
2019-02-09T18:34:33.403Z,98751.42
2019-02-09T18:37:03.526Z,98751.05
2019-02-09T18:39:33.585Z,98747.88
2019-02-09T18:42:02.813Z,98747.88
2019-02-09T18:44:33.016Z,98743.63
2019-02-09T18:47:02.823Z,98749.81
2019-02-09T18:49:32.817Z,98752.83
2019-02-09T18:52:03.147Z,98750.06
2019-02-09T18:54:33.339Z,98754.95
2019-02-09T18:57:03.489Z,98744.99
2019-02-09T18:59:33.650Z,98751.96
2019-02-09T19:02:02.616Z,98751.96
2019-02-09T19:04:32.426Z,98750.74
2019-02-09T19:07:02.547Z,98752.22
2019-02-09T19:09:32.615Z,98752.27
2019-02-09T19:12:01.719Z,98752.27
2019-02-09T19:14:32.040Z,98750.70
2019-02-09T19:17:02.065Z,98746.84
2019-02-09T19:19:33.121Z,98749.73
2019-02-09T19:22:03.101Z,98742.43
2019-02-09T19:24:34.167Z,98742.72
2019-02-09T19:27:04.148Z,98740.23
2019-02-09T19:29:33.823Z,98733.84
2019-02-09T19:32:03.841Z,98724.98
2019-02-09T19:34:33.994Z,98732.60
2019-02-09T19:37:04.046Z,98724.83
2019-02-09T19:39:34.331Z,98728.53
2019-02-09T19:42:06.318Z,98732.21
2019-02-09T19:44:36.363Z,98729.09
2019-02-09T19:47:08.016Z,98707.89
2019-02-09T19:49:38.308Z,98704.13
2019-02-09T19:52:08.472Z,98696.59
2019-02-09T19:54:38.523Z,98691.91
2019-02-09T19:57:08.339Z,98684.34
2019-02-09T19:59:38.308Z,98684.34
2019-02-09T20:02:08.193Z,98685.52
2019-02-09T20:04:38.075Z,98684.25
2019-02-09T20:07:07.752Z,98680.64
2019-02-09T20:09:38.162Z,98681.00
2019-02-09T20:12:07.639Z,98693.13
2019-02-09T20:14:37.566Z,98689.33
2019-02-09T20:17:07.638Z,98688.84
2019-02-09T20:19:36.735Z,98688.84
2019-02-09T20:24:50.496Z,98689.94
2019-02-09T20:27:20.683Z,98696.18
2019-02-09T20:29:50.670Z,98696.18
2019-02-09T20:32:21.607Z,98697.32
2019-02-09T20:34:50.777Z,98697.77
2019-02-09T20:37:21.121Z,98710.78
2019-02-09T20:39:51.169Z,98717.77
2019-02-09T20:42:21.328Z,98717.77
2019-02-09T20:44:51.377Z,98707.11
2019-02-09T20:47:21.324Z,98706.66
2019-02-09T20:49:51.032Z,98700.82
2019-02-09T20:52:21.338Z,98702.64
2019-02-09T20:54:52.303Z,98702.94
2019-02-09T20:57:22.464Z,98702.33
2019-02-09T20:59:52.873Z,98699.92
2019-02-09T21:02:22.669Z,98699.92
2019-02-09T21:04:52.564Z,98696.52
2019-02-09T21:07:24.519Z,98697.28
2019-02-09T21:09:54.445Z,98697.28
2019-02-09T21:12:24.316Z,98701.87
2019-02-09T21:14:54.306Z,98700.47
2019-02-09T21:17:24.489Z,98701.08
2019-02-09T21:19:54.556Z,98705.40
2019-02-09T21:22:23.512Z,98705.40
2019-02-09T21:24:53.530Z,98704.10
2019-02-09T21:27:23.308Z,98688.47
2019-02-09T21:29:53.143Z,98688.47
2019-02-09T21:32:23.574Z,98698.31
2019-02-09T21:34:52.506Z,98694.50
2019-02-09T21:37:22.398Z,98696.89
2019-02-09T21:39:52.645Z,98696.89
2019-02-09T21:42:21.759Z,98696.98
2019-02-09T21:44:51.569Z,98689.82
2019-02-09T21:47:20.635Z,98687.08
2019-02-09T21:49:49.955Z,98687.55
2019-02-09T21:52:19.964Z,98691.80
2019-02-09T21:54:49.834Z,98687.08
2019-02-09T21:57:19.846Z,98678.53
2019-02-09T21:59:51.145Z,98669.77
2019-02-09T22:02:21.009Z,98663.61
2019-02-09T22:04:50.827Z,98660.98
2019-02-09T22:07:21.051Z,98660.77
2019-02-09T22:09:51.844Z,98661.31
2019-02-09T22:12:21.539Z,98670.26
2019-02-09T22:14:51.628Z,98671.21
2019-02-09T22:17:20.878Z,98663.62
2019-02-09T22:19:51.093Z,98660.77
2019-02-09T22:22:21.064Z,98661.80
2019-02-09T22:24:51.092Z,98664.84
2019-02-09T22:27:21.297Z,98656.75
2019-02-09T22:29:51.039Z,98660.80
2019-02-09T22:32:21.037Z,98658.13
2019-02-09T22:34:50.835Z,98655.95
2019-02-09T22:37:20.861Z,98653.03
2019-02-09T22:39:50.842Z,98648.83
2019-02-09T22:42:20.856Z,98645.42
2019-02-09T22:44:50.682Z,98648.49
2019-02-09T22:47:20.925Z,98641.55
2019-02-09T22:49:50.821Z,98643.80
2019-02-09T22:52:20.543Z,98638.36
2019-02-09T22:54:49.726Z,98632.33
2019-02-09T22:57:19.651Z,98629.70
2019-02-09T22:59:48.729Z,98621.06
2019-02-09T23:02:18.559Z,98612.66
2019-02-09T23:05:38.267Z,98617.80
2019-02-09T23:08:08.317Z,98617.80
2019-02-09T23:10:38.117Z,98621.66
2019-02-09T23:13:08.309Z,98622.24
2019-02-09T23:15:38.323Z,98628.41
2019-02-09T23:18:08.107Z,98616.82
2019-02-09T23:20:38.136Z,98611.59
2019-02-09T23:23:08.524Z,98613.41
2019-02-09T23:25:38.634Z,98592.91
2019-02-09T23:28:08.622Z,98592.91
2019-02-09T23:30:38.033Z,98607.58
2019-02-09T23:33:07.812Z,98597.86
2019-02-09T23:35:37.695Z,98597.63
2019-02-09T23:38:07.647Z,98591.42
2019-02-09T23:40:36.614Z,98591.42
2019-02-09T23:43:06.578Z,98586.84
2019-02-09T23:45:38.377Z,98586.84
2019-02-09T23:48:08.108Z,98587.75
2019-02-09T23:50:37.711Z,98585.03
2019-02-09T23:53:06.938Z,98585.85
2019-02-09T23:55:37.050Z,98571.84
2019-02-09T23:58:06.825Z,98565.70
